sensor_id;sensor_type;location;lat;lon;timestamp;temperature;humidity
44851;DHT22;30583;48.714;9.386;2023-01-30T00:00:59;-3276.50;74.40
44851;DHT22;30583;48.714;9.386;2023-01-30T00:03:25;-3276.30;75.80
44851;DHT22;30583;48.714;9.386;2023-01-30T00:05:51;-3276.30;76.40
44851;DHT22;30583;48.714;9.386;2023-01-30T00:08:17;-3276.30;75.80
44851;DHT22;30583;48.714;9.386;2023-01-30T00:10:44;-3276.50;75.80
44851;DHT22;30583;48.714;9.386;2023-01-30T00:13:10;-3276.50;75.20
44851;DHT22;30583;48.714;9.386;2023-01-30T00:15:36;-3276.50;75.00
44851;DHT22;30583;48.714;9.386;2023-01-30T00:18:02;0.00;74.40
44851;DHT22;30583;48.714;9.386;2023-01-30T00:20:28;-3276.50;74.60
44851;DHT22;30583;48.714;9.386;2023-01-30T00:22:53;-3276.70;74.30
44851;DHT22;30583;48.714;9.386;2023-01-30T00:25:19;-3276.10;75.80
44851;DHT22;30583;48.714;9.386;2023-01-30T00:27:44;-3276.20;75.60
44851;DHT22;30583;48.714;9.386;2023-01-30T00:30:10;-3276.50;74.90
44851;DHT22;30583;48.714;9.386;2023-01-30T00:32:36;-3276.30;74.90
44851;DHT22;30583;48.714;9.386;2023-01-30T00:35:01;-3276.00;76.10
44851;DHT22;30583;48.714;9.386;2023-01-30T00:37:27;-3276.30;75.90
44851;DHT22;30583;48.714;9.386;2023-01-30T00:39:52;-3276.40;75.00
44851;DHT22;30583;48.714;9.386;2023-01-30T00:42:18;-3276.40;74.90
44851;DHT22;30583;48.714;9.386;2023-01-30T00:45:02;-3276.70;74.20
44851;DHT22;30583;48.714;9.386;2023-01-30T00:47:50;-3276.50;74.90
44851;DHT22;30583;48.714;9.386;2023-01-30T00:50:15;-3276.40;74.70
44851;DHT22;30583;48.714;9.386;2023-01-30T00:52:41;-3276.60;74.70
44851;DHT22;30583;48.714;9.386;2023-01-30T00:55:07;-3276.60;73.90
44851;DHT22;30583;48.714;9.386;2023-01-30T00:57:32;-3276.50;74.30
44851;DHT22;30583;48.714;9.386;2023-01-30T00:59:58;0.00;74.20
44851;DHT22;30583;48.714;9.386;2023-01-30T01:02:24;-3276.50;75.00
44851;DHT22;30583;48.714;9.386;2023-01-30T01:04:49;-3276.40;75.30
44851;DHT22;30583;48.714;9.386;2023-01-30T01:07:15;-3276.00;76.20
44851;DHT22;30583;48.714;9.386;2023-01-30T01:09:41;-3276.20;76.00
44851;DHT22;30583;48.714;9.386;2023-01-30T01:12:07;-3276.40;75.40
44851;DHT22;30583;48.714;9.386;2023-01-30T01:14:33;-3276.60;74.50
44851;DHT22;30583;48.714;9.386;2023-01-30T01:16:59;-3276.60;74.00
44851;DHT22;30583;48.714;9.386;2023-01-30T01:19:24;-3276.50;74.70
44851;DHT22;30583;48.714;9.386;2023-01-30T01:21:50;-3276.60;74.40
44851;DHT22;30583;48.714;9.386;2023-01-30T01:24:16;-3276.40;74.60
44851;DHT22;30583;48.714;9.386;2023-01-30T01:26:42;-3276.50;74.70
44851;DHT22;30583;48.714;9.386;2023-01-30T01:29:13;-3276.40;74.60
44851;DHT22;30583;48.714;9.386;2023-01-30T01:31:39;-3276.40;74.60
44851;DHT22;30583;48.714;9.386;2023-01-30T01:34:05;-3276.40;75.70
44851;DHT22;30583;48.714;9.386;2023-01-30T01:36:30;-3276.40;75.60
44851;DHT22;30583;48.714;9.386;2023-01-30T01:38:56;-3276.50;75.10
44851;DHT22;30583;48.714;9.386;2023-01-30T01:41:21;-3276.50;74.70
44851;DHT22;30583;48.714;9.386;2023-01-30T01:44:08;-3276.60;74.60
44851;DHT22;30583;48.714;9.386;2023-01-30T01:46:47;0.00;73.90
44851;DHT22;30583;48.714;9.386;2023-01-30T01:51:55;-3276.70;74.20
44851;DHT22;30583;48.714;9.386;2023-01-30T01:54:34;0.10;73.90
44851;DHT22;30583;48.714;9.386;2023-01-30T01:57:06;-3276.60;73.80
44851;DHT22;30583;48.714;9.386;2023-01-30T01:59:37;-3276.10;75.40
44851;DHT22;30583;48.714;9.386;2023-01-30T02:02:08;-3276.40;75.50
44851;DHT22;30583;48.714;9.386;2023-01-30T02:04:38;-3276.60;74.10
44851;DHT22;30583;48.714;9.386;2023-01-30T02:07:23;-3276.50;74.60
44851;DHT22;30583;48.714;9.386;2023-01-30T02:09:50;-3276.50;75.50
44851;DHT22;30583;48.714;9.386;2023-01-30T02:12:16;-3276.60;75.30
44851;DHT22;30583;48.714;9.386;2023-01-30T02:14:42;-3276.50;75.60
44851;DHT22;30583;48.714;9.386;2023-01-30T02:17:08;-3276.50;75.70
44851;DHT22;30583;48.714;9.386;2023-01-30T02:19:52;-3276.20;76.10
44851;DHT22;30583;48.714;9.386;2023-01-30T02:22:57;-3276.20;77.30
44851;DHT22;30583;48.714;9.386;2023-01-30T02:31:06;-3276.60;75.80
44851;DHT22;30583;48.714;9.386;2023-01-30T02:34:02;-3276.40;76.10
44851;DHT22;30583;48.714;9.386;2023-01-30T02:37:11;-3276.30;76.20
44851;DHT22;30583;48.714;9.386;2023-01-30T02:42:41;-3276.40;74.90
44851;DHT22;30583;48.714;9.386;2023-01-30T02:45:24;-3275.80;77.40
44851;DHT22;30583;48.714;9.386;2023-01-30T02:48:03;-3276.30;77.20
44851;DHT22;30583;48.714;9.386;2023-01-30T02:52:59;0.00;75.00
44851;DHT22;30583;48.714;9.386;2023-01-30T02:55:27;0.10;74.40
44851;DHT22;30583;48.714;9.386;2023-01-30T02:57:53;0.10;74.50
44851;DHT22;30583;48.714;9.386;2023-01-30T03:03:40;-3276.50;76.20
44851;DHT22;30583;48.714;9.386;2023-01-30T03:06:37;-3276.70;75.60
44851;DHT22;30583;48.714;9.386;2023-01-30T03:12:01;-3276.60;75.30
44851;DHT22;30583;48.714;9.386;2023-01-30T03:14:31;-3276.30;76.90
44851;DHT22;30583;48.714;9.386;2023-01-30T03:17:00;-3276.10;76.90
44851;DHT22;30583;48.714;9.386;2023-01-30T03:19:28;-3275.80;78.10
44851;DHT22;30583;48.714;9.386;2023-01-30T03:21:55;-3276.00;78.10
44851;DHT22;30583;48.714;9.386;2023-01-30T03:24:20;-3276.10;77.40
44851;DHT22;30583;48.714;9.386;2023-01-30T03:26:53;-3276.20;77.50
44851;DHT22;30583;48.714;9.386;2023-01-30T03:29:19;-3276.30;76.80
44851;DHT22;30583;48.714;9.386;2023-01-30T03:31:45;-3276.10;75.90
44851;DHT22;30583;48.714;9.386;2023-01-30T03:34:10;-3275.90;77.80
44851;DHT22;30583;48.714;9.386;2023-01-30T03:36:36;-3276.20;77.00
44851;DHT22;30583;48.714;9.386;2023-01-30T03:39:02;-3275.80;77.20
44851;DHT22;30583;48.714;9.386;2023-01-30T03:41:29;-3276.20;77.60
44851;DHT22;30583;48.714;9.386;2023-01-30T03:43:55;-3276.10;77.70
44851;DHT22;30583;48.714;9.386;2023-01-30T03:46:20;-3276.50;77.40
44851;DHT22;30583;48.714;9.386;2023-01-30T03:48:46;-3276.50;77.30
44851;DHT22;30583;48.714;9.386;2023-01-30T03:51:11;0.00;76.20
44851;DHT22;30583;48.714;9.386;2023-01-30T03:53:37;0.00;75.60
44851;DHT22;30583;48.714;9.386;2023-01-30T03:56:03;0.40;75.20
44851;DHT22;30583;48.714;9.386;2023-01-30T03:58:28;0.10;74.80
44851;DHT22;30583;48.714;9.386;2023-01-30T04:00:57;0.00;75.70
44851;DHT22;30583;48.714;9.386;2023-01-30T04:03:23;-3276.60;76.50
44851;DHT22;30583;48.714;9.386;2023-01-30T04:05:49;0.20;75.60
44851;DHT22;30583;48.714;9.386;2023-01-30T04:08:14;0.40;74.60
44851;DHT22;30583;48.714;9.386;2023-01-30T04:10:40;0.00;75.20
44851;DHT22;30583;48.714;9.386;2023-01-30T04:13:06;0.00;74.90
44851;DHT22;30583;48.714;9.386;2023-01-30T04:15:32;0.30;74.70
44851;DHT22;30583;48.714;9.386;2023-01-30T04:17:57;0.30;73.90
44851;DHT22;30583;48.714;9.386;2023-01-30T04:20:23;0.40;74.30
44851;DHT22;30583;48.714;9.386;2023-01-30T04:22:49;0.50;74.10
44851;DHT22;30583;48.714;9.386;2023-01-30T04:25:15;0.20;74.60
44851;DHT22;30583;48.714;9.386;2023-01-30T04:27:40;0.00;75.40
44851;DHT22;30583;48.714;9.386;2023-01-30T04:30:06;-3276.60;76.20
44851;DHT22;30583;48.714;9.386;2023-01-30T04:32:32;0.00;76.50
44851;DHT22;30583;48.714;9.386;2023-01-30T04:34:58;0.00;76.10
44851;DHT22;30583;48.714;9.386;2023-01-30T04:37:27;0.10;75.70
44851;DHT22;30583;48.714;9.386;2023-01-30T04:39:52;0.00;75.70
44851;DHT22;30583;48.714;9.386;2023-01-30T04:42:18;0.00;75.70
44851;DHT22;30583;48.714;9.386;2023-01-30T04:44:43;0.10;75.70
44851;DHT22;30583;48.714;9.386;2023-01-30T04:47:09;0.30;75.10
44851;DHT22;30583;48.714;9.386;2023-01-30T04:49:35;0.50;73.70
44851;DHT22;30583;48.714;9.386;2023-01-30T04:52:00;0.50;73.60
44851;DHT22;30583;48.714;9.386;2023-01-30T04:54:26;0.70;73.60
44851;DHT22;30583;48.714;9.386;2023-01-30T04:56:51;1.10;72.10
44851;DHT22;30583;48.714;9.386;2023-01-30T04:59:17;1.00;71.80
44851;DHT22;30583;48.714;9.386;2023-01-30T05:01:42;0.50;72.70
44851;DHT22;30583;48.714;9.386;2023-01-30T05:04:08;0.70;72.10
44851;DHT22;30583;48.714;9.386;2023-01-30T05:06:34;0.60;72.50
44851;DHT22;30583;48.714;9.386;2023-01-30T05:09:01;0.80;72.30
44851;DHT22;30583;48.714;9.386;2023-01-30T05:11:28;0.70;72.00
44851;DHT22;30583;48.714;9.386;2023-01-30T05:13:54;0.80;72.30
44851;DHT22;30583;48.714;9.386;2023-01-30T05:16:21;0.90;71.90
44851;DHT22;30583;48.714;9.386;2023-01-30T05:18:48;1.20;71.10
44851;DHT22;30583;48.714;9.386;2023-01-30T05:21:17;0.90;70.70
44851;DHT22;30583;48.714;9.386;2023-01-30T05:23:43;0.90;71.30
44851;DHT22;30583;48.714;9.386;2023-01-30T05:26:09;1.00;71.10
44851;DHT22;30583;48.714;9.386;2023-01-30T05:28:35;0.70;71.30
44851;DHT22;30583;48.714;9.386;2023-01-30T05:31:09;0.70;72.20
44851;DHT22;30583;48.714;9.386;2023-01-30T05:33:35;0.90;71.50
44851;DHT22;30583;48.714;9.386;2023-01-30T05:36:01;1.20;71.30
44851;DHT22;30583;48.714;9.386;2023-01-30T05:38:27;0.80;71.20
44851;DHT22;30583;48.714;9.386;2023-01-30T05:41:00;0.50;72.90
44851;DHT22;30583;48.714;9.386;2023-01-30T05:43:26;0.80;72.20
44851;DHT22;30583;48.714;9.386;2023-01-30T05:45:56;0.90;71.70
44851;DHT22;30583;48.714;9.386;2023-01-30T05:48:23;0.90;71.90
44851;DHT22;30583;48.714;9.386;2023-01-30T05:50:52;1.10;72.20
44851;DHT22;30583;48.714;9.386;2023-01-30T05:53:19;1.00;71.70
44851;DHT22;30583;48.714;9.386;2023-01-30T05:55:45;0.80;72.10
44851;DHT22;30583;48.714;9.386;2023-01-30T05:58:11;0.90;72.30
44851;DHT22;30583;48.714;9.386;2023-01-30T06:00:36;0.90;72.20
44851;DHT22;30583;48.714;9.386;2023-01-30T06:03:02;1.00;71.60
44851;DHT22;30583;48.714;9.386;2023-01-30T06:05:28;0.80;72.60
44851;DHT22;30583;48.714;9.386;2023-01-30T06:07:53;1.00;72.20
44851;DHT22;30583;48.714;9.386;2023-01-30T06:10:19;1.10;72.10
44851;DHT22;30583;48.714;9.386;2023-01-30T06:12:44;1.30;71.80
44851;DHT22;30583;48.714;9.386;2023-01-30T06:15:10;1.90;74.80
44851;DHT22;30583;48.714;9.386;2023-01-30T06:17:36;2.20;74.30
44851;DHT22;30583;48.714;9.386;2023-01-30T06:20:02;1.80;71.50
44851;DHT22;30583;48.714;9.386;2023-01-30T06:22:28;1.70;72.10
44851;DHT22;30583;48.714;9.386;2023-01-30T06:24:53;1.90;71.60
44851;DHT22;30583;48.714;9.386;2023-01-30T06:27:19;1.60;70.70
44851;DHT22;30583;48.714;9.386;2023-01-30T06:29:44;1.20;70.90
44851;DHT22;30583;48.714;9.386;2023-01-30T06:32:10;1.20;70.60
44851;DHT22;30583;48.714;9.386;2023-01-30T06:34:35;1.40;70.50
44851;DHT22;30583;48.714;9.386;2023-01-30T06:37:01;1.50;69.90
44851;DHT22;30583;48.714;9.386;2023-01-30T06:39:27;1.80;69.40
44851;DHT22;30583;48.714;9.386;2023-01-30T06:41:52;1.50;69.20
44851;DHT22;30583;48.714;9.386;2023-01-30T06:44:18;1.40;69.60
44851;DHT22;30583;48.714;9.386;2023-01-30T06:46:43;1.30;69.70
44851;DHT22;30583;48.714;9.386;2023-01-30T06:49:09;1.20;69.90
44851;DHT22;30583;48.714;9.386;2023-01-30T06:51:34;1.40;69.90
44851;DHT22;30583;48.714;9.386;2023-01-30T06:54:00;1.60;69.10
44851;DHT22;30583;48.714;9.386;2023-01-30T06:56:26;1.50;68.50
44851;DHT22;30583;48.714;9.386;2023-01-30T06:58:51;1.50;68.10
44851;DHT22;30583;48.714;9.386;2023-01-30T07:01:17;1.50;68.50
44851;DHT22;30583;48.714;9.386;2023-01-30T07:03:43;1.50;69.30
44851;DHT22;30583;48.714;9.386;2023-01-30T07:06:09;1.70;68.70
44851;DHT22;30583;48.714;9.386;2023-01-30T07:08:35;1.50;68.60
44851;DHT22;30583;48.714;9.386;2023-01-30T07:11:00;1.70;68.10
44851;DHT22;30583;48.714;9.386;2023-01-30T07:13:28;1.80;67.70
44851;DHT22;30583;48.714;9.386;2023-01-30T07:15:54;1.80;67.60
44851;DHT22;30583;48.714;9.386;2023-01-30T07:18:19;1.60;67.40
44851;DHT22;30583;48.714;9.386;2023-01-30T07:20:46;1.60;67.10
44851;DHT22;30583;48.714;9.386;2023-01-30T07:23:12;1.70;67.40
44851;DHT22;30583;48.714;9.386;2023-01-30T07:25:38;1.80;67.30
44851;DHT22;30583;48.714;9.386;2023-01-30T07:28:03;1.70;66.70
44851;DHT22;30583;48.714;9.386;2023-01-30T07:30:32;1.60;67.30
44851;DHT22;30583;48.714;9.386;2023-01-30T07:33:00;1.60;67.50
44851;DHT22;30583;48.714;9.386;2023-01-30T07:35:28;1.60;66.50
44851;DHT22;30583;48.714;9.386;2023-01-30T07:37:54;1.50;67.20
44851;DHT22;30583;48.714;9.386;2023-01-30T07:40:20;1.70;66.90
44851;DHT22;30583;48.714;9.386;2023-01-30T07:43:02;1.50;67.20
44851;DHT22;30583;48.714;9.386;2023-01-30T07:45:33;1.70;67.30
44851;DHT22;30583;48.714;9.386;2023-01-30T07:47:59;1.80;67.40
44851;DHT22;30583;48.714;9.386;2023-01-30T07:50:25;1.60;67.20
44851;DHT22;30583;48.714;9.386;2023-01-30T07:52:51;1.60;67.60
44851;DHT22;30583;48.714;9.386;2023-01-30T07:55:16;1.80;67.00
44851;DHT22;30583;48.714;9.386;2023-01-30T07:57:42;1.70;67.30
44851;DHT22;30583;48.714;9.386;2023-01-30T08:00:08;1.60;67.30
44851;DHT22;30583;48.714;9.386;2023-01-30T08:02:35;1.50;67.50
44851;DHT22;30583;48.714;9.386;2023-01-30T08:05:01;1.70;67.40
44851;DHT22;30583;48.714;9.386;2023-01-30T08:07:26;1.80;67.10
44851;DHT22;30583;48.714;9.386;2023-01-30T08:09:52;1.70;67.00
44851;DHT22;30583;48.714;9.386;2023-01-30T08:12:18;2.00;66.60
44851;DHT22;30583;48.714;9.386;2023-01-30T08:14:43;1.80;66.40
44851;DHT22;30583;48.714;9.386;2023-01-30T08:17:09;2.00;66.90
44851;DHT22;30583;48.714;9.386;2023-01-30T08:19:34;2.20;66.80
44851;DHT22;30583;48.714;9.386;2023-01-30T08:22:00;2.20;66.30
44851;DHT22;30583;48.714;9.386;2023-01-30T08:24:25;2.00;67.00
44851;DHT22;30583;48.714;9.386;2023-01-30T08:26:51;2.20;66.60
44851;DHT22;30583;48.714;9.386;2023-01-30T08:29:16;2.20;66.20
44851;DHT22;30583;48.714;9.386;2023-01-30T08:31:42;2.10;67.00
44851;DHT22;30583;48.714;9.386;2023-01-30T08:34:08;2.00;66.40
44851;DHT22;30583;48.714;9.386;2023-01-30T08:36:33;2.00;66.80
44851;DHT22;30583;48.714;9.386;2023-01-30T08:38:59;2.00;67.00
44851;DHT22;30583;48.714;9.386;2023-01-30T08:41:25;2.10;67.40
44851;DHT22;30583;48.714;9.386;2023-01-30T08:43:52;2.10;67.40
44851;DHT22;30583;48.714;9.386;2023-01-30T08:46:18;2.20;67.80
44851;DHT22;30583;48.714;9.386;2023-01-30T08:48:46;2.10;67.90
44851;DHT22;30583;48.714;9.386;2023-01-30T08:51:11;2.00;68.00
44851;DHT22;30583;48.714;9.386;2023-01-30T08:53:37;2.10;67.90
44851;DHT22;30583;48.714;9.386;2023-01-30T08:56:03;2.00;67.80
44851;DHT22;30583;48.714;9.386;2023-01-30T08:58:29;2.10;67.50
44851;DHT22;30583;48.714;9.386;2023-01-30T09:00:54;1.80;68.20
44851;DHT22;30583;48.714;9.386;2023-01-30T09:03:20;2.10;67.80
44851;DHT22;30583;48.714;9.386;2023-01-30T09:05:45;2.30;67.60
44851;DHT22;30583;48.714;9.386;2023-01-30T09:08:12;2.40;67.10
44851;DHT22;30583;48.714;9.386;2023-01-30T09:10:37;2.40;67.00
44851;DHT22;30583;48.714;9.386;2023-01-30T09:13:03;2.40;67.40
44851;DHT22;30583;48.714;9.386;2023-01-30T09:15:30;2.50;66.80
44851;DHT22;30583;48.714;9.386;2023-01-30T09:17:56;2.70;66.90
44851;DHT22;30583;48.714;9.386;2023-01-30T09:20:22;2.70;66.80
44851;DHT22;30583;48.714;9.386;2023-01-30T09:22:48;2.70;66.80
44851;DHT22;30583;48.714;9.386;2023-01-30T09:25:13;2.60;66.40
44851;DHT22;30583;48.714;9.386;2023-01-30T09:27:39;2.60;67.10
44851;DHT22;30583;48.714;9.386;2023-01-30T09:30:09;2.60;67.20
44851;DHT22;30583;48.714;9.386;2023-01-30T09:32:35;2.80;67.10
44851;DHT22;30583;48.714;9.386;2023-01-30T09:35:02;2.90;66.60
44851;DHT22;30583;48.714;9.386;2023-01-30T09:37:27;2.90;67.30
44851;DHT22;30583;48.714;9.386;2023-01-30T09:39:53;3.00;66.90
44851;DHT22;30583;48.714;9.386;2023-01-30T09:45:43;3.10;66.80
44851;DHT22;30583;48.714;9.386;2023-01-30T09:56:38;3.00;67.80
44851;DHT22;30583;48.714;9.386;2023-01-30T09:59:04;3.20;67.60
44851;DHT22;30583;48.714;9.386;2023-01-30T10:02:04;3.30;67.10
44851;DHT22;30583;48.714;9.386;2023-01-30T10:04:40;3.30;67.10
44851;DHT22;30583;48.714;9.386;2023-01-30T10:10:39;3.20;67.60
44851;DHT22;30583;48.714;9.386;2023-01-30T10:16:27;3.40;67.10
44851;DHT22;30583;48.714;9.386;2023-01-30T10:22:15;3.40;68.00
44851;DHT22;30583;48.714;9.386;2023-01-30T10:24:57;3.40;68.00
44851;DHT22;30583;48.714;9.386;2023-01-30T10:27:25;3.50;67.80
44851;DHT22;30583;48.714;9.386;2023-01-30T10:29:58;3.60;67.30
44851;DHT22;30583;48.714;9.386;2023-01-30T10:32:31;3.70;67.90
44851;DHT22;30583;48.714;9.386;2023-01-30T10:35:12;3.70;67.60
44851;DHT22;30583;48.714;9.386;2023-01-30T10:37:58;3.70;67.90
44851;DHT22;30583;48.714;9.386;2023-01-30T10:40:34;3.70;67.70
44851;DHT22;30583;48.714;9.386;2023-01-30T10:50:58;4.10;67.20
44851;DHT22;30583;48.714;9.386;2023-01-30T10:53:54;4.20;67.50
44851;DHT22;30583;48.714;9.386;2023-01-30T10:59:23;4.20;68.20
44851;DHT22;30583;48.714;9.386;2023-01-30T11:02:08;4.00;68.80
44851;DHT22;30583;48.714;9.386;2023-01-30T11:04:56;4.30;68.60
44851;DHT22;30583;48.714;9.386;2023-01-30T11:07:22;4.40;68.90
44851;DHT22;30583;48.714;9.386;2023-01-30T11:09:48;4.20;69.50
44851;DHT22;30583;48.714;9.386;2023-01-30T11:12:14;4.30;69.50
44851;DHT22;30583;48.714;9.386;2023-01-30T11:14:59;4.30;69.80
44851;DHT22;30583;48.714;9.386;2023-01-30T11:17:44;4.30;70.20
44851;DHT22;30583;48.714;9.386;2023-01-30T11:20:14;4.20;70.50
44851;DHT22;30583;48.714;9.386;2023-01-30T11:23:04;4.40;70.00
44851;DHT22;30583;48.714;9.386;2023-01-30T11:25:30;4.60;69.80
44851;DHT22;30583;48.714;9.386;2023-01-30T11:28:01;4.50;69.80
44851;DHT22;30583;48.714;9.386;2023-01-30T11:30:30;4.50;70.00
44851;DHT22;30583;48.714;9.386;2023-01-30T11:33:34;4.30;70.70
44851;DHT22;30583;48.714;9.386;2023-01-30T11:36:24;4.40;71.10
44851;DHT22;30583;48.714;9.386;2023-01-30T11:41:26;4.30;71.70
44851;DHT22;30583;48.714;9.386;2023-01-30T11:44:02;4.40;71.20
44851;DHT22;30583;48.714;9.386;2023-01-30T11:46:34;4.30;71.20
44851;DHT22;30583;48.714;9.386;2023-01-30T11:49:03;4.40;71.10
44851;DHT22;30583;48.714;9.386;2023-01-30T11:51:33;4.50;71.00
44851;DHT22;30583;48.714;9.386;2023-01-30T11:54:02;4.40;71.80
44851;DHT22;30583;48.714;9.386;2023-01-30T11:59:26;4.50;72.00
44851;DHT22;30583;48.714;9.386;2023-01-30T12:02:24;4.40;72.80
44851;DHT22;30583;48.714;9.386;2023-01-30T12:04:54;4.30;73.70
44851;DHT22;30583;48.714;9.386;2023-01-30T12:07:26;4.30;74.40
44851;DHT22;30583;48.714;9.386;2023-01-30T12:09:53;4.20;74.30
44851;DHT22;30583;48.714;9.386;2023-01-30T12:12:30;4.30;74.60
44851;DHT22;30583;48.714;9.386;2023-01-30T12:21:00;4.00;76.90
44851;DHT22;30583;48.714;9.386;2023-01-30T12:26:20;3.90;77.50
44851;DHT22;30583;48.714;9.386;2023-01-30T12:28:59;4.10;77.30
44851;DHT22;30583;48.714;9.386;2023-01-30T12:31:40;4.00;77.70
44851;DHT22;30583;48.714;9.386;2023-01-30T12:34:08;4.00;77.70
44851;DHT22;30583;48.714;9.386;2023-01-30T12:39:13;3.90;77.90
44851;DHT22;30583;48.714;9.386;2023-01-30T12:42:24;3.90;78.40
44851;DHT22;30583;48.714;9.386;2023-01-30T12:44:58;3.70;78.70
44851;DHT22;30583;48.714;9.386;2023-01-30T12:50:21;3.80;78.70
44851;DHT22;30583;48.714;9.386;2023-01-30T12:58:34;3.70;78.40
44851;DHT22;30583;48.714;9.386;2023-01-30T13:03:54;3.60;79.10
44851;DHT22;30583;48.714;9.386;2023-01-30T13:09:24;3.80;79.80
44851;DHT22;30583;48.714;9.386;2023-01-30T13:20:15;3.30;81.80
44851;DHT22;30583;48.714;9.386;2023-01-30T13:22:56;3.50;81.30
44851;DHT22;30583;48.714;9.386;2023-01-30T13:28:17;3.50;81.40
44851;DHT22;30583;48.714;9.386;2023-01-30T13:30:44;3.20;82.60
44851;DHT22;30583;48.714;9.386;2023-01-30T13:33:17;3.20;82.60
44851;DHT22;30583;48.714;9.386;2023-01-30T13:35:56;3.30;82.60
44851;DHT22;30583;48.714;9.386;2023-01-30T13:38:27;3.30;82.70
44851;DHT22;30583;48.714;9.386;2023-01-30T13:40:56;3.10;83.30
44851;DHT22;30583;48.714;9.386;2023-01-30T13:43:30;3.40;82.80
44851;DHT22;30583;48.714;9.386;2023-01-30T13:46:01;3.40;82.40
44851;DHT22;30583;48.714;9.386;2023-01-30T14:09:40;3.50;82.20
44851;DHT22;30583;48.714;9.386;2023-01-30T14:12:19;3.80;81.30
44851;DHT22;30583;48.714;9.386;2023-01-30T14:15:02;3.60;81.70
44851;DHT22;30583;48.714;9.386;2023-01-30T14:17:29;3.60;82.20
44851;DHT22;30583;48.714;9.386;2023-01-30T14:20:16;3.20;82.60
44851;DHT22;30583;48.714;9.386;2023-01-30T14:22:55;3.30;82.70
44851;DHT22;30583;48.714;9.386;2023-01-30T14:30:52;3.40;82.40
44851;DHT22;30583;48.714;9.386;2023-01-30T14:38:30;3.40;82.50
44851;DHT22;30583;48.714;9.386;2023-01-30T14:43:46;3.20;83.30
44851;DHT22;30583;48.714;9.386;2023-01-30T15:07:47;3.20;83.60
44851;DHT22;30583;48.714;9.386;2023-01-30T15:10:48;3.20;83.40
44851;DHT22;30583;48.714;9.386;2023-01-30T15:13:37;3.20;83.70
44851;DHT22;30583;48.714;9.386;2023-01-30T15:27:49;3.40;82.90
44851;DHT22;30583;48.714;9.386;2023-01-30T15:30:46;3.60;82.60
44851;DHT22;30583;48.714;9.386;2023-01-30T15:33:22;3.70;81.80
44851;DHT22;30583;48.714;9.386;2023-01-30T15:35:48;3.70;81.50
44851;DHT22;30583;48.714;9.386;2023-01-30T15:38:31;3.70;81.90
44851;DHT22;30583;48.714;9.386;2023-01-30T15:41:00;3.40;82.00
44851;DHT22;30583;48.714;9.386;2023-01-30T15:43:33;3.40;82.60
44851;DHT22;30583;48.714;9.386;2023-01-30T15:46:16;3.60;82.10
44851;DHT22;30583;48.714;9.386;2023-01-30T15:48:59;3.60;81.80
44851;DHT22;30583;48.714;9.386;2023-01-30T15:51:29;3.50;82.10
44851;DHT22;30583;48.714;9.386;2023-01-30T15:53:57;3.60;82.00
44851;DHT22;30583;48.714;9.386;2023-01-30T15:56:29;3.60;81.60
44851;DHT22;30583;48.714;9.386;2023-01-30T15:58:57;3.50;81.60
44851;DHT22;30583;48.714;9.386;2023-01-30T16:01:25;3.60;81.70
44851;DHT22;30583;48.714;9.386;2023-01-30T16:03:51;3.50;81.70
44851;DHT22;30583;48.714;9.386;2023-01-30T16:06:33;3.40;82.10
44851;DHT22;30583;48.714;9.386;2023-01-30T16:09:18;3.40;82.00
44851;DHT22;30583;48.714;9.386;2023-01-30T16:11:44;3.50;82.10
44851;DHT22;30583;48.714;9.386;2023-01-30T16:14:15;3.60;81.80
44851;DHT22;30583;48.714;9.386;2023-01-30T16:19:20;3.40;81.90
44851;DHT22;30583;48.714;9.386;2023-01-30T16:21:47;3.60;81.70
44851;DHT22;30583;48.714;9.386;2023-01-30T16:24:22;3.60;81.50
44851;DHT22;30583;48.714;9.386;2023-01-30T16:26:53;3.70;81.20
44851;DHT22;30583;48.714;9.386;2023-01-30T16:29:23;3.80;80.90
44851;DHT22;30583;48.714;9.386;2023-01-30T16:31:50;3.90;80.60
44851;DHT22;30583;48.714;9.386;2023-01-30T16:34:32;3.90;80.40
44851;DHT22;30583;48.714;9.386;2023-01-30T16:39:45;3.70;80.00
44851;DHT22;30583;48.714;9.386;2023-01-30T16:42:26;3.70;81.00
44851;DHT22;30583;48.714;9.386;2023-01-30T16:47:45;3.80;80.50
44851;DHT22;30583;48.714;9.386;2023-01-30T16:50:20;3.70;80.80
44851;DHT22;30583;48.714;9.386;2023-01-30T16:52:50;3.80;80.20
44851;DHT22;30583;48.714;9.386;2023-01-30T16:55:23;3.70;80.80
44851;DHT22;30583;48.714;9.386;2023-01-30T16:57:51;3.90;80.40
44851;DHT22;30583;48.714;9.386;2023-01-30T17:00:27;3.90;80.00
44851;DHT22;30583;48.714;9.386;2023-01-30T17:03:01;4.00;79.80
44851;DHT22;30583;48.714;9.386;2023-01-30T17:05:38;4.20;79.20
44851;DHT22;30583;48.714;9.386;2023-01-30T17:08:05;4.10;79.20
44851;DHT22;30583;48.714;9.386;2023-01-30T17:13:02;3.90;80.00
44851;DHT22;30583;48.714;9.386;2023-01-30T17:15:33;3.70;80.00
44851;DHT22;30583;48.714;9.386;2023-01-30T17:17:59;3.90;79.90
44851;DHT22;30583;48.714;9.386;2023-01-30T17:20:30;3.90;79.20
44851;DHT22;30583;48.714;9.386;2023-01-30T17:22:58;3.90;79.40
44851;DHT22;30583;48.714;9.386;2023-01-30T17:25:38;4.10;79.10
44851;DHT22;30583;48.714;9.386;2023-01-30T17:28:06;3.90;79.40
44851;DHT22;30583;48.714;9.386;2023-01-30T17:30:32;4.10;79.10
44851;DHT22;30583;48.714;9.386;2023-01-30T17:32:57;3.90;79.40
44851;DHT22;30583;48.714;9.386;2023-01-30T17:35:23;3.80;79.30
44851;DHT22;30583;48.714;9.386;2023-01-30T17:37:48;3.70;79.70
44851;DHT22;30583;48.714;9.386;2023-01-30T17:40:18;3.70;79.80
44851;DHT22;30583;48.714;9.386;2023-01-30T17:42:44;3.60;79.70
44851;DHT22;30583;48.714;9.386;2023-01-30T17:45:11;3.60;79.90
44851;DHT22;30583;48.714;9.386;2023-01-30T17:47:36;3.60;80.20
44851;DHT22;30583;48.714;9.386;2023-01-30T17:50:02;3.70;79.60
44851;DHT22;30583;48.714;9.386;2023-01-30T17:52:28;3.70;79.70
44851;DHT22;30583;48.714;9.386;2023-01-30T17:54:54;3.70;79.30
44851;DHT22;30583;48.714;9.386;2023-01-30T17:57:19;3.70;79.30
44851;DHT22;30583;48.714;9.386;2023-01-30T17:59:45;3.50;80.10
44851;DHT22;30583;48.714;9.386;2023-01-30T18:02:11;3.70;80.20
44851;DHT22;30583;48.714;9.386;2023-01-30T18:04:37;3.60;79.70
44851;DHT22;30583;48.714;9.386;2023-01-30T18:07:06;3.50;79.80
44851;DHT22;30583;48.714;9.386;2023-01-30T18:09:34;3.40;80.40
44851;DHT22;30583;48.714;9.386;2023-01-30T18:12:00;3.50;80.10
44851;DHT22;30583;48.714;9.386;2023-01-30T18:14:26;3.40;80.50
44851;DHT22;30583;48.714;9.386;2023-01-30T18:16:52;3.50;80.30
44851;DHT22;30583;48.714;9.386;2023-01-30T18:19:17;3.50;79.80
44851;DHT22;30583;48.714;9.386;2023-01-30T18:21:48;3.50;80.00
44851;DHT22;30583;48.714;9.386;2023-01-30T18:24:14;3.50;79.90
44851;DHT22;30583;48.714;9.386;2023-01-30T18:26:40;3.60;79.80
44851;DHT22;30583;48.714;9.386;2023-01-30T18:29:06;3.60;79.70
44851;DHT22;30583;48.714;9.386;2023-01-30T18:31:34;3.40;80.30
44851;DHT22;30583;48.714;9.386;2023-01-30T18:33:59;3.40;80.30
44851;DHT22;30583;48.714;9.386;2023-01-30T18:36:25;3.40;80.40
44851;DHT22;30583;48.714;9.386;2023-01-30T18:38:50;3.50;80.10
44851;DHT22;30583;48.714;9.386;2023-01-30T18:41:19;3.50;80.10